Time;durP1;ratioP1;P1;durP2;ratioP2;P2;SDS_P1;SDS_P2;PMS_P1;PMS_P2;Temp;Humidity;BMP_temperature;BMP_pressure;BME280_temperature;BME280_humidity;BME280_pressure;Samples;Min_cycle;Max_cycle;Signal;HPM_P1;HPM_P2
2021/04/12 00:00:32;;;;;;;1.77;1.65;;;7.40;62.40;;;;;;5024166;28;20017;-84
2021/04/12 00:03:12;;;;;;;2.30;1.80;;;7.40;62.50;;;;;;4994041;28;20051;-83
2021/04/12 00:05:46;;;;;;;1.90;1.70;;;7.30;62.40;;;;;;5019304;28;20424;-84
2021/04/12 00:08:43;;;;;;;1.80;1.58;;;7.30;62.40;;;;;;5049462;28;20078;-84
2021/04/12 00:11:47;;;;;;;2.15;1.60;;;7.20;62.50;;;;;;5038476;28;20478;-84
2021/04/12 00:14:30;;;;;;;2.10;1.77;;;7.20;62.60;;;;;;5024480;28;20056;-84
2021/04/12 00:17:17;;;;;;;1.52;1.42;;;7.20;62.60;;;;;;5038575;28;20029;-83
2021/04/12 00:20:09;;;;;;;1.90;1.75;;;7.10;62.60;;;;;;5029550;28;20032;-84
2021/04/12 00:22:46;;;;;;;2.22;1.63;;;7.10;62.70;;;;;;5046075;28;20041;-84
2021/04/12 00:25:14;;;;;;;2.13;1.50;;;7.00;62.60;;;;;;5037188;28;20082;-84
2021/04/12 00:27:51;;;;;;;2.17;1.70;;;7.00;62.60;;;;;;5041442;28;20473;-84
2021/04/12 00:30:35;;;;;;;2.60;1.75;;;7.00;62.70;;;;;;5032460;28;20021;-83
2021/04/12 00:33:31;;;;;;;2.28;2.08;;;7.00;62.80;;;;;;5035760;28;20032;-84
2021/04/12 00:36:24;;;;;;;2.28;1.50;;;6.90;62.80;;;;;;5036571;28;20488;-84
2021/04/12 00:39:07;;;;;;;2.05;1.65;;;6.90;62.70;;;;;;5047899;28;20079;-83
2021/04/12 00:41:56;;;;;;;1.83;1.67;;;6.90;62.80;;;;;;5045815;28;20028;-83
2021/04/12 00:44:44;;;;;;;2.13;1.50;;;6.80;62.80;;;;;;5033182;28;20088;-84
2021/04/12 00:47:40;;;;;;;1.60;1.50;;;6.80;62.80;;;;;;5052909;28;20110;-83
2021/04/12 00:50:19;;;;;;;1.75;1.40;;;6.80;62.90;;;;;;5022498;28;20492;-83
2021/04/12 00:53:06;;;;;;;1.77;1.58;;;6.80;62.80;;;;;;5027719;28;20028;-84
2021/04/12 00:55:36;;;;;;;1.73;1.40;;;6.70;62.80;;;;;;5027942;28;20029;-84
2021/04/12 00:58:43;;;;;;;1.92;1.60;;;6.70;62.90;;;;;;5025057;28;20052;-84
2021/04/12 01:01:12;;;;;;;1.48;1.38;;;6.70;63.00;;;;;;5019887;28;20068;-83
2021/04/12 01:03:57;;;;;;;1.80;1.70;;;6.70;62.90;;;;;;5049785;28;20040;-83
2021/04/12 01:07:05;;;;;;;2.00;1.80;;;6.60;62.90;;;;;;5030789;28;20066;-83
2021/04/12 01:10:04;;;;;;;1.92;1.63;;;6.60;63.00;;;;;;5054835;28;20848;-83
2021/04/12 01:13:03;;;;;;;1.65;1.55;;;6.60;63.00;;;;;;5029656;28;20056;-83
2021/04/12 01:15:50;;;;;;;1.83;1.70;;;6.50;63.00;;;;;;5066719;28;20032;-83
2021/04/12 01:18:38;;;;;;;2.95;1.70;;;6.50;63.00;;;;;;5026600;28;20036;-82
2021/04/12 01:21:35;;;;;;;2.53;1.70;;;6.50;63.10;;;;;;5038208;28;20029;-83
2021/04/12 01:24:23;;;;;;;2.88;1.80;;;6.40;63.10;;;;;;5038686;28;20028;-83
2021/04/12 01:27:30;;;;;;;1.50;1.40;;;6.40;63.10;;;;;;5029358;28;20119;-83
2021/04/12 01:30:24;;;;;;;3.53;2.28;;;6.40;63.20;;;;;;4997599;28;20045;-83
2021/04/12 01:33:06;;;;;;;1.70;1.60;;;6.40;63.20;;;;;;5054153;28;20029;-83
2021/04/12 01:36:02;;;;;;;2.00;1.58;;;6.30;63.10;;;;;;5031377;28;20116;-83
2021/04/12 01:38:41;;;;;;;2.10;1.90;;;6.30;63.20;;;;;;5042518;28;20028;-83
2021/04/12 01:41:09;;;;;;;2.00;1.80;;;6.30;63.20;;;;;;5052662;28;20025;-83
2021/04/12 01:44:00;;;;;;;2.65;1.92;;;6.20;63.10;;;;;;5048059;28;20052;-83
2021/04/12 01:46:51;;;;;;;2.20;1.80;;;6.20;63.30;;;;;;5051780;28;20036;-83
2021/04/12 01:49:52;;;;;;;2.30;1.90;;;6.20;63.30;;;;;;5050239;28;20044;-83
2021/04/12 01:53:01;;;;;;;2.10;1.90;;;6.20;63.40;;;;;;5045176;28;20021;-83
2021/04/12 01:56:03;;;;;;;2.50;1.80;;;6.10;63.30;;;;;;5035108;28;20029;-82
2021/04/12 01:59:07;;;;;;;2.10;1.88;;;6.10;63.30;;;;;;5032983;28;20037;-83
2021/04/12 02:01:52;;;;;;;2.20;2.00;;;6.10;63.40;;;;;;4999702;28;20048;-83
2021/04/12 02:04:24;;;;;;;2.33;2.08;;;6.10;63.30;;;;;;5068519;28;20103;-83
2021/04/12 02:07:23;;;;;;;2.22;1.85;;;6.00;63.30;;;;;;5040955;28;20108;-83
2021/04/12 02:10:11;;;;;;;2.10;1.90;;;6.00;63.40;;;;;;5030680;28;20029;-83
2021/04/12 02:13:21;;;;;;;2.10;1.67;;;6.00;63.40;;;;;;5065638;28;20043;-83
2021/04/12 02:16:15;;;;;;;2.25;2.05;;;6.00;63.60;;;;;;5027433;28;20033;-82
2021/04/12 02:18:59;;;;;;;2.05;1.85;;;6.00;63.50;;;;;;5056964;28;20388;-82
2021/04/12 02:21:33;;;;;;;2.55;2.30;;;5.90;63.40;;;;;;5040149;28;20024;-83
2021/04/12 02:24:27;;;;;;;2.70;1.92;;;5.90;63.40;;;;;;5057311;28;20036;-83
2021/04/12 02:26:57;;;;;;;2.75;2.25;;;5.90;63.60;;;;;;5041458;28;20036;-83
2021/04/12 02:29:40;;;;;;;2.10;1.90;;;5.90;63.40;;;;;;5038792;28;20097;-83
2021/04/12 02:32:25;;;;;;;2.10;1.90;;;5.80;63.50;;;;;;5030793;28;20029;-82
2021/04/12 02:35:07;;;;;;;2.70;2.50;;;5.80;63.50;;;;;;5044564;28;20021;-83
2021/04/12 02:38:11;;;;;;;2.47;1.90;;;5.80;63.60;;;;;;5033017;28;20063;-82
2021/04/12 02:40:53;;;;;;;2.33;2.13;;;5.80;63.70;;;;;;5018502;28;20131;-82
2021/04/12 02:43:37;;;;;;;3.50;2.28;;;5.80;63.60;;;;;;5050941;28;20098;-83
2021/04/12 02:46:21;;;;;;;2.30;2.10;;;5.70;63.50;;;;;;5029747;28;20176;-82
2021/04/12 02:49:16;;;;;;;2.75;2.53;;;5.70;63.60;;;;;;5023080;28;20597;-83
2021/04/12 02:52:30;;;;;;;2.63;2.20;;;5.70;63.70;;;;;;5036890;28;20032;-82
2021/04/12 02:55:03;;;;;;;2.35;2.15;;;5.60;63.70;;;;;;5030723;28;20492;-83
2021/04/12 02:57:55;;;;;;;3.05;2.30;;;5.60;63.60;;;;;;5047655;28;20037;-83
2021/04/12 03:00:48;;;;;;;2.50;2.10;;;5.60;63.70;;;;;;5028174;28;20039;-83
2021/04/12 03:03:35;;;;;;;3.60;2.22;;;5.60;63.70;;;;;;5036475;28;20025;-83
2021/04/12 03:06:31;;;;;;;3.35;2.35;;;5.60;63.70;;;;;;5025896;28;20029;-83
2021/04/12 03:09:09;;;;;;;2.70;2.13;;;5.50;63.80;;;;;;5051245;28;20021;-83
2021/04/12 03:12:01;;;;;;;3.08;2.40;;;5.50;63.70;;;;;;5048196;28;20135;-83
2021/04/12 03:15:09;;;;;;;2.45;2.22;;;5.50;64.40;;;;;;5038854;28;20025;-83
2021/04/12 03:17:53;;;;;;;2.75;2.35;;;5.50;64.00;;;;;;5021261;28;20052;-83
2021/04/12 03:20:35;;;;;;;2.63;1.98;;;5.40;63.80;;;;;;5046086;28;20029;-82
2021/04/12 03:23:10;;;;;;;3.33;2.28;;;5.40;63.90;;;;;;5055362;28;20078;-82
2021/04/12 03:26:09;;;;;;;2.47;2.15;;;5.40;63.90;;;;;;5042024;28;20039;-83
2021/04/12 03:28:41;;;;;;;2.72;2.40;;;5.40;64.00;;;;;;5047027;28;20382;-82
2021/04/12 03:31:43;;;;;;;3.20;2.25;;;5.40;63.90;;;;;;5055747;28;20024;-83
2021/04/12 03:34:22;;;;;;;2.90;2.45;;;5.30;64.00;;;;;;5047208;28;20351;-82
2021/04/12 03:37:02;;;;;;;2.40;2.00;;;5.30;64.00;;;;;;5039355;28;20366;-82
2021/04/12 03:39:55;;;;;;;2.72;2.20;;;5.30;64.10;;;;;;5039172;28;20508;-83
2021/04/12 03:42:59;;;;;;;2.45;2.00;;;5.30;64.10;;;;;;5029139;28;20020;-83
2021/04/12 03:45:24;;;;;;;2.78;2.22;;;5.30;64.10;;;;;;5027304;28;20028;-83
2021/04/12 03:48:12;;;;;;;2.35;2.13;;;5.30;64.00;;;;;;5037974;28;20075;-83
2021/04/12 03:51:02;;;;;;;2.67;2.20;;;5.30;64.10;;;;;;5038517;28;20416;-82
2021/04/12 03:53:54;;;;;;;2.50;2.08;;;5.30;64.10;;;;;;5047625;28;20029;-82
2021/04/12 03:56:57;;;;;;;2.85;2.50;;;5.20;64.10;;;;;;5050682;28;20028;-81
2021/04/12 03:59:51;;;;;;;2.42;2.17;;;5.20;64.20;;;;;;5029744;28;20479;-83
2021/04/12 04:02:57;;;;;;;2.95;2.25;;;5.20;64.20;;;;;;5029236;28;20082;-83
2021/04/12 04:05:45;;;;;;;4.55;2.72;;;5.20;64.30;;;;;;4974401;28;20031;-83
2021/04/12 04:08:25;;;;;;;2.40;2.20;;;5.20;64.30;;;;;;5056534;28;20051;-83
2021/04/12 04:11:03;;;;;;;2.60;2.35;;;5.20;64.20;;;;;;5065896;28;20032;-83
2021/04/12 04:13:35;;;;;;;2.95;2.65;;;5.20;64.30;;;;;;5034673;28;20060;-83
2021/04/12 04:16:07;;;;;;;2.83;2.38;;;5.20;64.30;;;;;;5037461;28;20036;-82
2021/04/12 04:18:57;;;;;;;2.72;2.10;;;5.20;64.40;;;;;;5037635;28;20029;-83
2021/04/12 04:21:31;;;;;;;2.90;2.10;;;5.10;64.40;;;;;;5037408;28;20028;-82
2021/04/12 04:24:28;;;;;;;3.13;2.60;;;5.10;64.30;;;;;;5038431;28;20055;-82
2021/04/12 04:27:31;;;;;;;3.33;2.45;;;5.20;64.40;;;;;;5065823;28;20036;-82
2021/04/12 04:30:03;;;;;;;2.67;2.17;;;5.10;64.30;;;;;;5026814;28;20032;-83
2021/04/12 04:33:00;;;;;;;2.83;2.20;;;5.10;64.30;;;;;;5056990;28;20025;-81
2021/04/12 04:35:44;;;;;;;2.67;2.13;;;5.10;64.50;;;;;;5027624;28;20024;-82
2021/04/12 04:38:38;;;;;;;2.45;2.25;;;5.10;64.40;;;;;;5041291;28;20111;-82
2021/04/12 04:41:14;;;;;;;2.40;2.20;;;5.10;64.40;;;;;;5029995;28;20043;-80
2021/04/12 04:43:53;;;;;;;3.10;2.42;;;5.00;64.30;;;;;;5043983;28;20020;-80
2021/04/12 04:46:36;;;;;;;2.13;1.92;;;5.00;64.40;;;;;;5066511;28;20033;-79
2021/04/12 04:49:29;;;;;;;2.58;2.20;;;5.10;64.50;;;;;;5036439;28;20041;-79
2021/04/12 04:52:29;;;;;;;2.90;2.05;;;5.00;64.50;;;;;;5022895;28;20400;-79
2021/04/12 04:55:35;;;;;;;2.65;2.20;;;5.00;64.50;;;;;;5037467;28;20032;-79
2021/04/12 04:58:01;;;;;;;;;;;5.00;64.60;;;;;;5020084;28;20043;-82
2021/04/12 05:00:57;;;;;;;1.77;1.67;;;5.00;64.30;;;;;;5037929;28;19995;-83
2021/04/12 05:03:45;;;;;;;2.80;2.38;;;5.00;64.40;;;;;;5072197;28;20016;-82
2021/04/12 05:06:25;;;;;;;3.30;2.30;;;5.00;64.50;;;;;;5037257;28;20028;-81
2021/04/12 05:08:57;;;;;;;2.67;2.22;;;5.00;64.60;;;;;;5025793;28;20044;-84
2021/04/12 05:11:40;;;;;;;2.78;2.05;;;5.00;64.60;;;;;;5053020;28;20386;-84
2021/04/12 05:14:37;;;;;;;2.75;2.38;;;5.00;64.80;;;;;;5052754;28;20045;-82
2021/04/12 05:17:22;;;;;;;2.30;2.03;;;5.00;64.80;;;;;;5032179;28;20028;-82
2021/04/12 05:20:10;;;;;;;2.60;2.22;;;5.00;64.60;;;;;;5049865;28;20029;-80
2021/04/12 05:22:55;;;;;;;2.83;2.35;;;5.00;64.70;;;;;;5037922;28;20056;-82
2021/04/12 05:25:49;;;;;;;2.80;2.47;;;4.90;64.60;;;;;;5045810;28;20027;-82
2021/04/12 05:28:24;;;;;;;2.13;1.92;;;5.00;64.80;;;;;;5062972;28;20043;-82
2021/04/12 05:31:41;;;;;;;2.25;2.03;;;5.00;64.80;;;;;;5027513;28;20051;-80
2021/04/12 05:34:37;;;;;;;3.63;2.17;;;5.00;64.90;;;;;;5004746;28;20397;-82
2021/04/12 05:37:35;;;;;;;2.30;2.10;;;4.90;64.80;;;;;;5046683;28;20040;-82
2021/04/12 05:40:16;;;;;;;2.53;1.85;;;4.90;64.80;;;;;;5038657;28;20021;-82
2021/04/12 05:42:47;;;;;;;2.22;2.03;;;5.00;64.90;;;;;;5035609;28;20068;-82
2021/04/12 05:45:42;;;;;;;3.13;2.05;;;4.90;64.80;;;;;;5068139;28;20107;-81
2021/04/12 05:48:41;;;;;;;2.80;2.30;;;5.00;65.00;;;;;;5072650;28;20072;-82
2021/04/12 05:51:25;;;;;;;2.85;2.15;;;5.00;65.00;;;;;;5074548;28;20016;-81
2021/04/12 05:54:23;;;;;;;3.17;2.10;;;5.00;64.80;;;;;;5027025;28;20040;-80
2021/04/12 05:57:04;;;;;;;2.40;2.20;;;5.00;65.00;;;;;;5049530;28;20040;-81
2021/04/12 05:59:38;;;;;;;2.17;1.98;;;5.00;64.90;;;;;;5056687;28;20069;-81
2021/04/12 06:02:40;;;;;;;2.42;1.80;;;5.00;64.90;;;;;;5036571;28;20469;-81
2021/04/12 06:05:20;;;;;;;2.00;1.80;;;5.00;65.10;;;;;;5060131;28;20508;-80
2021/04/12 06:08:01;;;;;;;2.33;2.08;;;5.00;65.00;;;;;;5048196;28;20037;-80
2021/04/12 06:10:44;;;;;;;2.50;1.95;;;5.00;65.60;;;;;;5040190;28;20028;-81
2021/04/12 06:13:33;;;;;;;2.38;2.10;;;5.00;65.10;;;;;;5076206;28;20045;-81
2021/04/12 06:16:31;;;;;;;2.20;2.00;;;5.00;65.00;;;;;;5017637;28;20040;-80
2021/04/12 06:19:21;;;;;;;2.28;2.00;;;5.10;65.10;;;;;;5044405;28;20443;-80
2021/04/12 06:22:21;;;;;;;2.10;1.90;;;5.00;65.10;;;;;;5057390;28;20480;-80
2021/04/12 06:25:23;;;;;;;2.08;1.88;;;5.00;65.00;;;;;;5054539;28;20033;-79
2021/04/12 06:28:14;;;;;;;2.45;1.88;;;5.00;65.10;;;;;;5054493;28;20036;-79
2021/04/12 06:31:05;;;;;;;2.30;1.98;;;5.00;65.00;;;;;;5056471;28;20033;-79
2021/04/12 06:33:40;;;;;;;2.15;1.80;;;5.00;65.10;;;;;;5056710;28;20377;-80
2021/04/12 06:36:34;;;;;;;1.70;1.60;;;5.10;65.10;;;;;;5056546;28;20028;-80
2021/04/12 06:39:38;;;;;;;1.70;1.60;;;5.00;65.10;;;;;;5055492;28;20136;-79
2021/04/12 06:42:49;;;;;;;2.42;2.22;;;5.10;65.20;;;;;;5046425;28;20681;-80
2021/04/12 06:45:49;;;;;;;2.00;1.73;;;5.10;65.20;;;;;;5015738;28;20072;-80
2021/04/12 06:48:27;;;;;;;2.30;1.90;;;5.10;65.20;;;;;;5069706;28;20119;-80
2021/04/12 06:51:43;;;;;;;1.90;1.80;;;5.10;65.20;;;;;;5056170;28;20021;-80
2021/04/12 06:54:41;;;;;;;2.00;1.80;;;5.10;65.30;;;;;;5006697;28;20070;-81
2021/04/12 06:57:29;;;;;;;1.80;1.70;;;5.10;65.20;;;;;;5027862;28;20461;-81
2021/04/12 07:00:32;;;;;;;2.15;1.58;;;5.10;65.20;;;;;;5039208;28;20163;-81
2021/04/12 07:03:16;;;;;;;2.25;1.90;;;5.10;65.30;;;;;;5054605;28;20028;-79
2021/04/12 07:05:57;;;;;;;1.83;1.70;;;5.20;65.20;;;;;;5036069;28;20079;-80
2021/04/12 07:09:08;;;;;;;1.75;1.65;;;5.20;65.40;;;;;;5054984;28;20090;-81
2021/04/12 07:12:09;;;;;;;1.90;1.80;;;5.20;65.30;;;;;;5011787;28;20040;-81
2021/04/12 07:14:50;;;;;;;1.65;1.55;;;5.20;65.30;;;;;;5026646;28;20393;-88
2021/04/12 07:17:52;;;;;;;1.60;1.50;;;5.20;65.30;;;;;;5041913;28;20062;-84
2021/04/12 07:20:20;;;;;;;2.80;1.80;;;5.20;65.30;;;;;;5057397;28;20048;-84
2021/04/12 07:23:17;;;;;;;2.03;1.80;;;5.20;65.20;;;;;;5044804;28;20026;-84
2021/04/12 07:25:57;;;;;;;1.90;1.58;;;5.30;65.40;;;;;;5044863;28;20063;-82
2021/04/12 07:29:00;;;;;;;1.98;1.80;;;5.30;65.40;;;;;;5037623;28;20033;-83
2021/04/12 07:31:45;;;;;;;1.73;1.63;;;5.30;65.40;;;;;;5053178;28;20113;-83
2021/04/12 07:34:29;;;;;;;2.10;1.90;;;5.30;65.30;;;;;;5061925;28;20028;-82
2021/04/12 07:37:22;;;;;;;1.58;1.48;;;5.30;65.40;;;;;;5026060;28;20094;-83
2021/04/12 07:40:25;;;;;;;1.75;1.65;;;5.30;65.40;;;;;;5032657;28;20125;-83
2021/04/12 07:43:15;;;;;;;1.88;1.75;;;5.30;65.40;;;;;;5048215;28;20047;-83
2021/04/12 07:46:13;;;;;;;1.60;1.50;;;5.40;65.40;;;;;;5030842;28;20033;-83
2021/04/12 07:49:08;;;;;;;1.58;1.40;;;5.40;65.40;;;;;;5034698;28;20035;-83
2021/04/12 07:52:11;;;;;;;1.58;1.48;;;5.40;65.30;;;;;;5027384;28;20044;-83
2021/04/12 07:55:01;;;;;;;1.67;1.58;;;5.40;65.40;;;;;;5055956;28;20058;-83
2021/04/12 07:58:00;;;;;;;1.67;1.58;;;5.40;65.30;;;;;;5055875;28;20037;-84
2021/04/12 08:00:57;;;;;;;1.63;1.52;;;5.50;65.50;;;;;;5036670;28;20042;-83
2021/04/12 08:03:57;;;;;;;1.60;1.50;;;5.50;65.40;;;;;;5027013;28;20052;-83
2021/04/12 08:06:34;;;;;;;1.63;1.40;;;5.50;65.50;;;;;;5057311;28;20059;-83
2021/04/12 08:09:20;;;;;;;1.73;1.63;;;5.50;65.50;;;;;;5040270;28;20420;-83
2021/04/12 08:12:04;;;;;;;1.77;1.67;;;5.50;65.50;;;;;;5042425;28;20036;-83
2021/04/12 08:14:45;;;;;;;1.63;1.52;;;5.60;65.50;;;;;;5048873;28;20078;-83
2021/04/12 08:17:35;;;;;;;1.63;1.52;;;5.60;65.50;;;;;;5054172;28;20032;-83
2021/04/12 08:20:19;;;;;;;1.70;1.60;;;5.70;65.60;;;;;;5028081;28;20021;-83
2021/04/12 08:23:22;;;;;;;1.57;1.47;;;5.70;65.60;;;;;;5031902;28;20021;-83
2021/04/12 08:26:19;;;;;;;1.85;1.48;;;5.70;65.50;;;;;;5036724;28;20070;-84
2021/04/12 08:29:21;;;;;;;2.00;1.73;;;5.80;65.50;;;;;;5054812;28;20040;-84
2021/04/12 08:32:22;;;;;;;2.17;1.40;;;5.80;65.60;;;;;;5031478;28;20032;-83
2021/04/12 08:35:45;;;;;;;1.80;1.70;;;5.80;65.50;;;;;;5059498;28;20067;-83
2021/04/12 08:38:30;;;;;;;1.60;1.50;;;5.80;65.50;;;;;;4975390;28;20034;-83
2021/04/12 08:41:16;;;;;;;2.28;1.45;;;5.90;65.40;;;;;;4975320;28;20035;-83
2021/04/12 08:44:08;;;;;;;1.58;1.48;;;5.90;65.40;;;;;;5052248;28;20040;-84
2021/04/12 08:46:50;;;;;;;1.58;1.48;;;6.00;65.50;;;;;;5039744;28;20040;-83
2021/04/12 08:49:54;;;;;;;2.08;1.58;;;6.10;65.50;;;;;;5036472;28;20025;-82
2021/04/12 08:52:38;;;;;;;1.58;1.40;;;6.10;65.50;;;;;;5042611;28;20027;-83
2021/04/12 08:55:27;;;;;;;1.63;1.52;;;6.20;65.40;;;;;;5075651;28;20039;-86
2021/04/12 08:58:22;;;;;;;1.63;1.45;;;6.30;65.40;;;;;;5041011;28;20025;-85
2021/04/12 09:01:13;;;;;;;1.60;1.45;;;6.30;65.20;;;;;;5012304;28;20058;-84
2021/04/12 09:03:41;;;;;;;1.50;1.40;;;6.40;65.20;;;;;;5076588;28;20120;-83
2021/04/12 09:06:07;;;;;;;1.52;1.42;;;6.50;65.10;;;;;;5058843;28;20067;-83
2021/04/12 09:09:18;;;;;;;1.48;1.38;;;6.60;65.10;;;;;;5039597;28;20052;-82
2021/04/12 09:12:02;;;;;;;1.42;1.30;;;6.60;65.20;;;;;;4996086;28;20040;-85
2021/04/12 09:14:42;;;;;;;1.52;1.42;;;6.70;65.00;;;;;;4998160;28;20128;-84
2021/04/12 09:17:27;;;;;;;1.40;1.30;;;6.80;65.00;;;;;;5045747;28;20061;-85
2021/04/12 09:20:17;;;;;;;1.55;1.45;;;6.90;65.00;;;;;;5042045;28;20453;-83
2021/04/12 09:23:19;;;;;;;1.85;1.45;;;6.90;64.90;;;;;;5058536;28;20043;-83
2021/04/12 09:26:22;;;;;;;1.33;1.20;;;7.00;64.80;;;;;;5058251;28;20025;-83
2021/04/12 09:29:22;;;;;;;1.10;1.10;;;7.10;64.80;;;;;;5041868;28;20501;-85
2021/04/12 09:32:22;;;;;;;1.60;1.50;;;7.20;64.70;;;;;;5038404;28;20075;-84
2021/04/12 09:34:51;;;;;;;1.40;1.30;;;7.30;64.60;;;;;;5022080;28;20485;-85
2021/04/12 09:37:54;;;;;;;1.13;1.13;;;7.40;64.50;;;;;;5046131;28;20374;-84
2021/04/12 09:40:30;;;;;;;1.50;1.40;;;7.40;64.60;;;;;;5021789;28;20032;-84
2021/04/12 09:43:38;;;;;;;1.48;1.30;;;7.50;64.40;;;;;;5055402;28;20024;-83
2021/04/12 09:46:36;;;;;;;1.50;1.40;;;7.60;64.50;;;;;;5044041;28;20109;-84
2021/04/12 09:49:24;;;;;;;1.40;1.30;;;7.70;64.40;;;;;;5058035;28;20032;-84
2021/04/12 09:52:33;;;;;;;1.42;1.33;;;7.80;64.40;;;;;;5044672;28;20025;-85
2021/04/12 09:55:37;;;;;;;1.30;1.20;;;7.80;64.30;;;;;;5043881;28;20449;-83
2021/04/12 09:58:44;;;;;;;1.38;1.30;;;7.90;64.30;;;;;;5039864;28;20082;-85
2021/04/12 10:01:13;;;;;;;1.50;1.40;;;8.00;64.30;;;;;;5042972;28;20151;-85
2021/04/12 10:03:51;;;;;;;1.30;1.20;;;8.10;64.10;;;;;;5040046;28;20032;-85
2021/04/12 10:06:48;;;;;;;2.15;1.50;;;8.10;64.20;;;;;;5057061;28;20090;-86
2021/04/12 10:09:22;;;;;;;1.42;1.33;;;8.20;64.30;;;;;;5045401;28;20116;-84
2021/04/12 10:12:18;;;;;;;1.70;1.60;;;8.30;64.20;;;;;;5053869;28;20032;-84
2021/04/12 10:14:53;;;;;;;1.50;1.40;;;8.40;64.10;;;;;;5029483;28;20378;-80
2021/04/12 10:17:27;;;;;;;1.75;1.52;;;8.50;64.10;;;;;;5053676;28;20016;-81
2021/04/12 10:20:01;;;;;;;1.95;1.52;;;8.60;64.10;;;;;;5022402;28;20445;-81
2021/04/12 10:22:33;;;;;;;1.50;1.40;;;8.60;64.00;;;;;;5071094;28;20024;-79
2021/04/12 10:25:11;;;;;;;1.80;1.70;;;8.70;63.90;;;;;;5046967;28;20078;-79
2021/04/12 10:27:47;;;;;;;1.92;1.70;;;8.80;64.00;;;;;;5033687;28;20017;-80
2021/04/12 10:30:17;;;;;;;1.88;1.70;;;8.80;63.90;;;;;;5044893;28;20427;-80
2021/04/12 10:33:07;;;;;;;2.22;1.67;;;8.90;63.80;;;;;;5031762;28;20021;-80
2021/04/12 10:35:37;;;;;;;1.60;1.50;;;9.00;63.90;;;;;;5024884;28;20071;-81
2021/04/12 10:38:21;;;;;;;1.60;1.50;;;9.10;63.70;;;;;;5037367;28;20460;-80
2021/04/12 10:40:56;;;;;;;1.77;1.65;;;9.10;63.70;;;;;;5050070;28;20067;-81
2021/04/12 10:43:27;;;;;;;;;;;9.20;63.70;;;;;;5026159;28;20056;-81
2021/04/12 10:46:20;;;;;;;1.50;1.40;;;9.20;63.50;;;;;;5030022;28;19909;-82
2021/04/12 10:48:55;;;;;;;1.33;1.27;;;9.30;63.40;;;;;;5028940;28;20028;-81
2021/04/12 10:51:39;;;;;;;;;;;9.40;63.50;;;;;;5039361;28;20038;-80
2021/04/12 10:54:25;;;;;;;1.33;1.27;;;9.40;63.40;;;;;;5047066;28;20303;-80
2021/04/12 10:57:10;;;;;;;1.45;1.35;;;9.50;63.40;;;;;;5036692;28;20032;-80
2021/04/12 10:59:53;;;;;;;1.30;1.20;;;9.50;63.50;;;;;;5055578;28;20033;-79
2021/04/12 11:02:23;;;;;;;1.05;1.05;;;9.60;63.50;;;;;;5073475;28;20516;-79
2021/04/12 11:05:04;;;;;;;1.40;1.30;;;9.70;63.50;;;;;;5055387;28;20016;-79
2021/04/12 11:07:57;;;;;;;1.38;1.27;;;9.80;63.50;;;;;;5029722;28;20051;-79
2021/04/12 11:10:40;;;;;;;1.35;1.30;;;9.80;63.50;;;;;;5053628;28;20525;-79
2021/04/12 11:13:11;;;;;;;1.20;1.10;;;9.90;64.00;;;;;;5054870;28;20135;-81
2021/04/12 11:15:46;;;;;;;1.35;1.25;;;10.00;63.30;;;;;;5056085;28;20027;-80
2021/04/12 11:18:53;;;;;;;1.25;1.17;;;10.10;63.30;;;;;;5046169;28;20086;-80
2021/04/12 11:21:32;;;;;;;1.50;1.40;;;10.10;63.30;;;;;;4992572;28;20033;-81
2021/04/12 11:24:22;;;;;;;1.33;1.20;;;10.20;63.10;;;;;;5049385;28;20037;-81
2021/04/12 11:27:26;;;;;;;1.10;1.10;;;10.30;63.10;;;;;;5047302;28;20028;-81
2021/04/12 11:30:40;;;;;;;1.15;1.10;;;10.30;63.00;;;;;;5043356;28;20055;-80
2021/04/12 11:33:18;;;;;;;1.35;1.25;;;10.50;63.00;;;;;;5052268;28;20036;-81
2021/04/12 11:35:52;;;;;;;1.50;1.30;;;10.50;62.80;;;;;;5041100;28;20028;-79
2021/04/12 11:38:26;;;;;;;1.30;1.20;;;10.60;62.80;;;;;;5026269;28;20037;-81
2021/04/12 11:41:18;;;;;;;1.13;1.05;;;10.70;62.80;;;;;;5035134;28;20408;-79
2021/04/12 11:43:50;;;;;;;1.20;1.10;;;10.70;62.70;;;;;;5035445;28;20502;-80
2021/04/12 11:46:38;;;;;;;1.20;1.10;;;10.90;62.60;;;;;;5041140;28;20024;-80
2021/04/12 11:49:24;;;;;;;1.50;1.00;;;10.90;62.60;;;;;;5038228;28;20028;-81
2021/04/12 11:51:55;;;;;;;1.55;1.17;;;10.90;62.50;;;;;;5049652;28;20115;-81
2021/04/12 11:54:48;;;;;;;1.27;1.17;;;11.00;62.50;;;;;;5033173;28;20033;-80
2021/04/12 11:57:38;;;;;;;1.10;1.10;;;11.10;62.40;;;;;;5035125;28;20060;-80
2021/04/12 12:00:07;;;;;;;1.30;1.17;;;11.10;62.40;;;;;;5054047;28;20025;-81
2021/04/12 12:03:01;;;;;;;1.20;1.10;;;11.20;62.30;;;;;;5050846;28;20021;-80
2021/04/12 12:05:39;;;;;;;1.30;1.20;;;11.20;62.40;;;;;;5035140;28;20049;-81
2021/04/12 12:08:10;;;;;;;1.45;1.20;;;11.30;62.50;;;;;;5053119;28;20036;-81
2021/04/12 12:10:41;;;;;;;1.30;1.20;;;11.40;62.40;;;;;;5039231;28;20523;-81
2021/04/12 12:13:44;;;;;;;1.15;1.10;;;11.40;62.50;;;;;;5037630;28;20072;-80
2021/04/12 12:16:29;;;;;;;1.40;1.30;;;11.40;62.60;;;;;;5024682;28;20114;-81
2021/04/12 12:19:24;;;;;;;1.50;1.40;;;11.50;62.60;;;;;;5036718;28;20102;-79
2021/04/12 12:22:39;;;;;;;1.30;1.20;;;11.60;62.70;;;;;;5037643;28;20025;-79
2021/04/12 12:25:26;;;;;;;1.52;1.20;;;11.60;62.70;;;;;;5056558;28;20119;-80
2021/04/12 12:28:36;;;;;;;1.30;1.20;;;11.70;62.70;;;;;;5053726;28;20029;-79
2021/04/12 12:31:49;;;;;;;1.42;1.33;;;11.80;62.80;;;;;;5037087;28;20032;-80
2021/04/12 12:34:34;;;;;;;1.30;1.20;;;11.80;62.70;;;;;;4948742;28;20034;-80
2021/04/12 12:37:14;;;;;;;2.55;1.30;;;11.90;62.50;;;;;;5027585;28;20024;-80
2021/04/12 12:39:44;;;;;;;1.10;1.00;;;11.90;62.50;;;;;;5037997;28;20024;-81
2021/04/12 12:42:21;;;;;;;1.42;1.15;;;12.00;62.50;;;;;;5034397;28;20106;-80
2021/04/12 12:44:48;;;;;;;1.00;1.00;;;12.00;62.60;;;;;;5043788;28;20404;-80
2021/04/12 12:47:19;;;;;;;1.33;1.23;;;12.20;62.70;;;;;;5018222;28;20033;-80
2021/04/12 12:49:49;;;;;;;1.17;1.08;;;12.10;62.70;;;;;;5037775;28;20496;-81
2021/04/12 12:52:34;;;;;;;1.00;1.00;;;12.20;62.80;;;;;;5059022;28;20025;-80
2021/04/12 12:55:10;;;;;;;1.48;1.15;;;12.30;63.00;;;;;;5039612;28;20025;-80
2021/04/12 12:57:40;;;;;;;1.38;1.00;;;12.30;62.80;;;;;;5037775;28;20040;-80
2021/04/12 13:00:36;;;;;;;1.40;1.30;;;12.30;62.90;;;;;;5071347;28;20024;-81
2021/04/12 13:03:42;;;;;;;0.95;0.93;;;12.40;63.00;;;;;;5048365;28;20111;-80
2021/04/12 13:06:27;;;;;;;1.30;1.20;;;12.40;63.00;;;;;;5040191;28;20040;-79
2021/04/12 13:08:59;;;;;;;0.90;0.90;;;12.40;63.00;;;;;;5067450;28;20029;-80
2021/04/12 13:11:42;;;;;;;1.05;1.05;;;12.40;62.90;;;;;;5034981;28;20032;-80
2021/04/12 13:14:36;;;;;;;1.27;1.17;;;12.40;63.00;;;;;;5033330;28;20080;-79
2021/04/12 13:17:30;;;;;;;1.10;1.00;;;12.40;63.00;;;;;;5032612;28;20052;-79
2021/04/12 13:20:10;;;;;;;2.45;1.10;;;12.40;63.00;;;;;;5027485;28;20112;-78
2021/04/12 13:22:42;;;;;;;2.15;1.00;;;12.40;62.90;;;;;;5036983;28;20021;-78
2021/04/12 13:25:32;;;;;;;1.10;1.00;;;12.40;62.90;;;;;;5044553;28;20598;-80
2021/04/12 13:28:13;;;;;;;1.00;1.00;;;12.40;63.00;;;;;;5051877;28;20075;-79
2021/04/12 13:30:42;;;;;;;1.02;1.02;;;12.40;63.00;;;;;;5046904;28;20028;-80
2021/04/12 13:33:34;;;;;;;0.93;0.93;;;12.40;62.90;;;;;;5050685;28;20359;-79
2021/04/12 13:36:18;;;;;;;1.10;1.10;;;12.40;63.00;;;;;;5049115;28;20032;-79
2021/04/12 13:38:45;;;;;;;1.20;1.13;;;12.40;62.90;;;;;;5039738;28;20461;-80
2021/04/12 13:41:27;;;;;;;1.38;0.98;;;12.40;62.90;;;;;;5037329;28;20275;-80
2021/04/12 13:44:07;;;;;;;1.05;1.00;;;12.40;62.90;;;;;;5047324;28;20029;-79
2021/04/12 13:46:50;;;;;;;0.98;0.98;;;12.40;62.90;;;;;;5040556;28;20171;-79
2021/04/12 13:49:36;;;;;;;0.80;0.80;;;12.40;62.80;;;;;;5028144;28;20059;-80
2021/04/12 13:52:09;;;;;;;1.00;1.00;;;12.40;62.90;;;;;;5063876;28;20021;-80
2021/04/12 13:54:43;;;;;;;1.00;1.00;;;12.40;62.70;;;;;;5048447;28;20056;-80
2021/04/12 13:57:27;;;;;;;0.80;0.80;;;12.40;62.70;;;;;;5049566;28;20021;-80
2021/04/12 14:00:01;;;;;;;0.95;0.95;;;12.40;62.80;;;;;;5050088;28;20085;-80
2021/04/12 14:02:36;;;;;;;1.20;1.10;;;12.40;62.70;;;;;;5046167;28;20077;-80
2021/04/12 14:05:08;;;;;;;1.08;1.00;;;12.40;62.70;;;;;;5056947;28;20033;-80
2021/04/12 14:07:47;;;;;;;1.10;1.00;;;12.40;62.70;;;;;;5074520;28;20108;-80
2021/04/12 14:10:28;;;;;;;0.93;0.93;;;12.40;62.70;;;;;;5053203;28;20038;-79
2021/04/12 14:12:59;;;;;;;1.42;1.10;;;12.40;62.70;;;;;;5074324;28;20107;-79
2021/04/12 14:15:52;;;;;;;1.40;1.17;;;12.40;62.70;;;;;;5036839;28;20040;-80
2021/04/12 14:18:32;;;;;;;1.00;0.95;;;12.40;62.70;;;;;;5056376;28;20032;-80
2021/04/12 14:21:14;;;;;;;1.10;1.00;;;12.40;62.70;;;;;;5056987;28;20078;-80
2021/04/12 14:23:51;;;;;;;1.10;1.08;;;12.40;62.80;;;;;;5040159;28;20457;-80
2021/04/12 14:26:31;;;;;;;1.20;0.95;;;12.40;62.80;;;;;;5056272;28;20020;-80
2021/04/12 14:29:19;;;;;;;1.15;1.00;;;12.40;62.80;;;;;;5053641;28;20024;-80
2021/04/12 14:31:45;;;;;;;1.00;1.00;;;12.40;62.80;;;;;;5056322;28;20067;-79
2021/04/12 14:34:35;;;;;;;1.00;1.00;;;12.40;62.80;;;;;;5039330;28;20036;-80
2021/04/12 14:37:07;;;;;;;0.98;0.98;;;12.40;62.90;;;;;;5074410;28;20052;-80
2021/04/12 14:39:34;;;;;;;1.17;1.08;;;12.40;62.80;;;;;;5039117;28;20105;-81